TimeCDT,TemperatureF,Dew PointF,Humidity,Sea Level PressureIn,VisibilityMPH,Wind Direction,Wind SpeedMPH,Gust SpeedMPH,PrecipitationIn,Events,Conditions,WindDirDegrees,DateUTC
12:08 AM,60.1,33.1,36,-9999,-9999.0,SSE,10.4,-,N/A,,Unknown,160,2013-05-13 05:08:00
12:28 AM,61.0,34.2,37,-9999,-9999.0,SSE,10.4,-,N/A,,Unknown,160,2013-05-13 05:28:00
12:48 AM,63.0,34.2,34,-9999,-9999.0,SSE,9.2,-,N/A,,Unknown,150,2013-05-13 05:48:00
1:08 AM,63.0,34.2,34,-9999,-9999.0,SSE,9.2,-,N/A,,Unknown,150,2013-05-13 06:08:00
1:28 AM,63.0,34.2,34,-9999,-9999.0,SSE,9.2,-,N/A,,Unknown,160,2013-05-13 06:28:00
1:48 AM,63.0,34.2,34,-9999,-9999.0,South,10.4,-,N/A,,Unknown,170,2013-05-13 06:48:00
2:08 AM,64.0,34.2,33,-9999,-9999.0,South,8.1,-,N/A,,Unknown,170,2013-05-13 07:08:00
2:28 AM,64.9,35.1,33,-9999,-9999.0,South,9.2,-,N/A,,Unknown,170,2013-05-13 07:28:00
2:48 AM,66.0,34.2,31,-9999,-9999.0,South,8.1,-,N/A,,Unknown,180,2013-05-13 07:48:00
3:08 AM,64.9,35.1,33,-9999,-9999.0,South,6.9,-,N/A,,Unknown,190,2013-05-13 08:08:00
3:28 AM,64.0,36.1,36,-9999,-9999.0,SSW,5.8,-,N/A,,Unknown,210,2013-05-13 08:28:00
3:48 AM,62.1,35.1,37,-9999,-9999.0,SSW,5.8,-,N/A,,Unknown,210,2013-05-13 08:48:00
4:08 AM,55.9,33.1,42,-9999,-9999.0,West,9.2,-,N/A,,Unknown,270,2013-05-13 09:08:00
4:28 AM,57.0,33.1,40,-9999,-9999.0,West,8.1,-,N/A,,Unknown,260,2013-05-13 09:28:00
4:48 AM,57.9,32.2,38,-9999,-9999.0,West,8.1,-,N/A,,Unknown,260,2013-05-13 09:48:00
5:08 AM,57.9,32.2,38,-9999,-9999.0,West,10.4,-,N/A,,Unknown,260,2013-05-13 10:08:00
5:28 AM,57.0,32.2,39,-9999,-9999.0,West,9.2,-,N/A,,Unknown,260,2013-05-13 10:28:00
5:48 AM,57.0,31.1,37,-9999,-9999.0,WSW,11.5,-,N/A,,Unknown,250,2013-05-13 10:48:00
6:08 AM,57.0,31.1,37,-9999,-9999.0,West,9.2,-,N/A,,Unknown,260,2013-05-13 11:08:00
6:28 AM,57.9,31.1,36,-9999,-9999.0,West,9.2,-,N/A,,Unknown,260,2013-05-13 11:28:00
6:48 AM,57.9,31.1,36,-9999,-9999.0,West,9.2,-,N/A,,Unknown,260,2013-05-13 11:48:00
7:08 AM,57.9,31.1,36,-9999,-9999.0,West,10.4,-,N/A,,Unknown,260,2013-05-13 12:08:00
7:28 AM,57.9,32.2,38,-9999,-9999.0,West,9.2,-,N/A,,Unknown,260,2013-05-13 12:28:00
7:48 AM,-9999,-9999,N/A,-9999,-9999.0,North,-9999.0,-,N/A,,Unknown,0,2013-05-13 12:48:00
8:08 AM,62.1,34.2,35,-9999,-9999.0,West,6.9,-,N/A,,Unknown,260,2013-05-13 13:08:00
8:28 AM,66.0,35.1,32,-9999,-9999.0,West,8.1,-,N/A,,Unknown,260,2013-05-13 13:28:00
8:48 AM,68.0,37.0,32,-9999,-9999.0,West,5.8,-,N/A,,Unknown,270,2013-05-13 13:48:00
9:08 AM,71.1,38.1,30,-9999,-9999.0,West,6.9,-,N/A,,Unknown,260,2013-05-13 14:08:00
9:28 AM,73.9,38.1,27,-9999,-9999.0,WSW,6.9,-,N/A,,Unknown,250,2013-05-13 14:28:00
9:48 AM,77.0,40.1,27,-9999,-9999.0,WSW,6.9,-,N/A,,Unknown,250,2013-05-13 14:48:00
10:08 AM,80.1,38.1,22,-9999,-9999.0,WSW,9.2,-,N/A,,Unknown,250,2013-05-13 15:08:00
10:28 AM,82.9,36.1,19,-9999,-9999.0,West,9.2,-,N/A,,Unknown,260,2013-05-13 15:28:00
10:48 AM,84.9,34.2,16,-9999,-9999.0,West,8.1,-,N/A,,Unknown,270,2013-05-13 15:48:00
11:08 AM,86.0,32.2,14,-9999,-9999.0,SW,8.1,-,N/A,,Unknown,220,2013-05-13 16:08:00
11:28 AM,87.1,33.1,15,-9999,-9999.0,SSW,6.9,-,N/A,,Unknown,210,2013-05-13 16:28:00
11:48 AM,87.1,33.1,15,-9999,-9999.0,West,9.2,-,N/A,,Unknown,280,2013-05-13 16:48:00
12:08 PM,88.0,33.1,14,-9999,-9999.0,SSE,9.2,-,N/A,,Unknown,160,2013-05-13 17:08:00
12:28 PM,89.1,34.2,14,-9999,-9999.0,WSW,8.1,-,N/A,,Unknown,240,2013-05-13 17:28:00
12:48 PM,90.0,34.2,14,-9999,-9999.0,SW,12.7,-,N/A,,Unknown,230,2013-05-13 17:48:00
1:08 PM,89.1,33.1,14,-9999,-9999.0,South,10.4,-,N/A,,Unknown,180,2013-05-13 18:08:00
1:28 PM,89.1,33.1,14,-9999,-9999.0,South,6.9,-,N/A,,Unknown,180,2013-05-13 18:28:00
1:48 PM,90.0,34.2,14,-9999,-9999.0,South,6.9,-,N/A,,Unknown,170,2013-05-13 18:48:00
2:08 PM,91.0,34.2,13,-9999,-9999.0,South,6.9,-,N/A,,Unknown,190,2013-05-13 19:08:00
2:28 PM,91.0,34.2,13,-9999,-9999.0,SW,5.8,-,N/A,,Unknown,220,2013-05-13 19:28:00
2:48 PM,91.0,34.2,13,-9999,-9999.0,West,4.6,-,N/A,,Unknown,280,2013-05-13 19:48:00
3:28 PM,91.9,34.2,13,-9999,-9999.0,South,9.2,-,N/A,,Unknown,170,2013-05-13 20:28:00
3:48 PM,91.9,33.1,12,-9999,-9999.0,South,9.2,-,N/A,,Unknown,170,2013-05-13 20:48:00
4:08 PM,91.0,33.1,13,-9999,-9999.0,West,4.6,-,N/A,,Unknown,270,2013-05-13 21:08:00
4:28 PM,91.9,34.2,13,-9999,-9999.0,SW,5.8,-,N/A,,Unknown,220,2013-05-13 21:28:00
4:48 PM,91.0,34.2,13,-9999,-9999.0,South,5.8,-,N/A,,Unknown,190,2013-05-13 21:48:00
5:08 PM,91.9,34.2,13,-9999,-9999.0,SSW,12.7,-,N/A,,Unknown,210,2013-05-13 22:08:00
5:28 PM,91.9,34.2,13,-9999,-9999.0,South,10.4,-,N/A,,Unknown,180,2013-05-13 22:28:00
5:49 PM,91.9,33.1,12,-9999,-9999.0,South,11.5,-,N/A,,Unknown,180,2013-05-13 22:49:00
6:08 PM,91.0,33.1,13,-9999,-9999.0,South,16.1,-,N/A,,Unknown,170,2013-05-13 23:08:00
6:28 PM,90.0,33.1,13,-9999,-9999.0,South,16.1,-,N/A,,Unknown,180,2013-05-13 23:28:00
6:48 PM,90.0,33.1,13,-9999,-9999.0,SSE,18.4,-,N/A,,Unknown,160,2013-05-13 23:48:00
7:08 PM,89.1,33.1,14,-9999,-9999.0,South,18.4,-,N/A,,Unknown,170,2013-05-14 00:08:00
7:28 PM,88.0,33.1,14,-9999,-9999.0,South,16.1,-,N/A,,Unknown,170,2013-05-14 00:28:00
7:48 PM,87.1,32.2,14,-9999,-9999.0,South,16.1,-,N/A,,Unknown,170,2013-05-14 00:48:00
8:08 PM,84.9,32.2,15,-9999,-9999.0,South,13.8,-,N/A,,Unknown,170,2013-05-14 01:08:00
8:28 PM,-9999,-9999,N/A,-9999,-9999.0,North,-9999.0,-,N/A,,Unknown,0,2013-05-14 01:28:00
8:48 PM,80.1,32.2,18,-9999,-9999.0,South,11.5,-,N/A,,Unknown,180,2013-05-14 01:48:00
9:08 PM,78.1,31.1,18,-9999,-9999.0,South,10.4,-,N/A,,Unknown,180,2013-05-14 02:08:00
9:28 PM,75.9,32.2,20,-9999,-9999.0,South,11.5,-,N/A,,Unknown,190,2013-05-14 02:28:00
9:48 PM,75.0,31.1,20,-9999,-9999.0,South,9.2,-,N/A,,Unknown,190,2013-05-14 02:48:00
10:08 PM,73.9,31.1,21,-9999,-9999.0,South,10.4,-,N/A,,Unknown,190,2013-05-14 03:08:00
10:28 PM,73.0,30.0,20,-9999,-9999.0,SSW,11.5,-,N/A,,Unknown,200,2013-05-14 03:28:00
10:48 PM,72.0,30.0,21,-9999,-9999.0,SSW,12.7,-,N/A,,Unknown,200,2013-05-14 03:48:00
11:08 PM,72.0,30.0,21,-9999,-9999.0,SSW,13.8,-,N/A,,Unknown,210,2013-05-14 04:08:00
11:28 PM,73.0,30.0,20,-9999,-9999.0,SW,11.5,-,N/A,,Unknown,220,2013-05-14 04:28:00
11:48 PM,72.0,30.0,21,-9999,-9999.0,SW,13.8,-,N/A,,Unknown,220,2013-05-14 04:48:00